Urbandale, Iowa
Current Conditions -  °F | °C
As of 5:54 PM on Thursday 18 Dec 2014 (Local Time) from KDSM Reporting Station
Overcast Overcast  
Wind Chill: 23°   Ceiling: 4500
Heat Index: 29°   Visibility: 10mi
Dew Point: 21°   Wind: 6mph
Humidity: 72%   Direction: 120°ESE
Pressure: 30.25"   Gusts: NA
Location:  41.63°N, 93.71°W
Report Text: KDSM 182354Z 12005KT 10SM OVC045 M02/M06 A3025 RMK AO2 SLP256 60000 T10171061 11006 21022 51008
Loading
Personal Weather Stations






























Interactive Weather Map New forecast layout! Learn more

10-Day Weather Forecast

Advertisements
Track Severe Weather on mobile